sensor_id;sensor_type;location;lat;lon;timestamp;pressure;altitude;pressure_sealevel;temperature;humidity
55460;BME280;41326;45.302;-122.946;2023-05-03T00:01:06;100312.73;;;17.89;58.93
55460;BME280;41326;45.302;-122.946;2023-05-03T00:03:33;100308.16;;;17.93;58.88
55460;BME280;41326;45.302;-122.946;2023-05-03T00:06:09;100314.35;;;17.93;58.97
55460;BME280;41326;45.302;-122.946;2023-05-03T00:08:34;100318.83;;;17.88;59.24
55460;BME280;41326;45.302;-122.946;2023-05-03T00:11:05;100319.74;;;17.90;59.16
55460;BME280;41326;45.302;-122.946;2023-05-03T00:13:35;100321.10;;;17.91;59.14
55460;BME280;41326;45.302;-122.946;2023-05-03T00:16:05;100322.55;;;17.94;58.95
55460;BME280;41326;45.302;-122.946;2023-05-03T00:18:35;100321.80;;;17.95;58.88
55460;BME280;41326;45.302;-122.946;2023-05-03T00:21:05;100325.38;;;17.94;58.84
55460;BME280;41326;45.302;-122.946;2023-05-03T00:23:35;100327.36;;;17.96;58.73
55460;BME280;41326;45.302;-122.946;2023-05-03T00:26:05;100334.33;;;17.96;58.75
55460;BME280;41326;45.302;-122.946;2023-05-03T00:28:36;100336.56;;;17.98;58.72
55460;BME280;41326;45.302;-122.946;2023-05-03T00:31:10;100341.92;;;18.00;58.69
55460;BME280;41326;45.302;-122.946;2023-05-03T00:33:36;100341.93;;;17.94;58.90
55460;BME280;41326;45.302;-122.946;2023-05-03T00:36:11;100341.80;;;17.96;58.87
55460;BME280;41326;45.302;-122.946;2023-05-03T00:38:37;100343.72;;;18.01;58.72
55460;BME280;41326;45.302;-122.946;2023-05-03T00:41:08;100337.89;;;17.94;58.91
55460;BME280;41326;45.302;-122.946;2023-05-03T00:43:38;100340.89;;;17.96;58.87
55460;BME280;41326;45.302;-122.946;2023-05-03T00:46:09;100349.71;;;17.99;58.82
55460;BME280;41326;45.302;-122.946;2023-05-03T00:48:38;100355.67;;;18.01;58.80
55460;BME280;41326;45.302;-122.946;2023-05-03T00:51:09;100354.06;;;18.01;58.77
55460;BME280;41326;45.302;-122.946;2023-05-03T00:53:39;100343.81;;;18.03;58.77
55460;BME280;41326;45.302;-122.946;2023-05-03T00:56:10;100346.00;;;18.05;58.72
55460;BME280;41326;45.302;-122.946;2023-05-03T00:58:40;100348.78;;;18.02;58.89
55460;BME280;41326;45.302;-122.946;2023-05-03T01:01:10;100356.97;;;17.97;59.10
55460;BME280;41326;45.302;-122.946;2023-05-03T01:03:42;100361.05;;;18.01;58.92
55460;BME280;41326;45.302;-122.946;2023-05-03T01:06:19;100361.64;;;17.97;59.15
55460;BME280;41326;45.302;-122.946;2023-05-03T01:08:46;100366.19;;;17.98;59.18
55460;BME280;41326;45.302;-122.946;2023-05-03T01:11:19;100377.40;;;18.00;59.44
55460;BME280;41326;45.302;-122.946;2023-05-03T01:13:48;100385.42;;;18.04;60.14
55460;BME280;41326;45.302;-122.946;2023-05-03T01:16:20;100383.54;;;18.06;60.48
55460;BME280;41326;45.302;-122.946;2023-05-03T01:18:44;100384.17;;;18.09;60.52
55460;BME280;41326;45.302;-122.946;2023-05-03T01:21:15;100381.69;;;18.12;60.69
55460;BME280;41326;45.302;-122.946;2023-05-03T01:23:53;100384.76;;;18.14;61.04
55460;BME280;41326;45.302;-122.946;2023-05-03T01:26:18;100398.12;;;18.16;61.18
55460;BME280;41326;45.302;-122.946;2023-05-03T01:28:45;100396.01;;;18.23;61.07
55460;BME280;41326;45.302;-122.946;2023-05-03T01:31:16;100389.32;;;18.32;61.17
55460;BME280;41326;45.302;-122.946;2023-05-03T01:33:54;100386.10;;;18.35;61.10
55460;BME280;41326;45.302;-122.946;2023-05-03T01:36:19;100389.91;;;18.40;60.88
55460;BME280;41326;45.302;-122.946;2023-05-03T01:38:46;100391.96;;;18.28;61.01
55460;BME280;41326;45.302;-122.946;2023-05-03T01:41:17;100393.63;;;18.25;60.93
55460;BME280;41326;45.302;-122.946;2023-05-03T01:43:48;100401.54;;;18.29;60.87
55460;BME280;41326;45.302;-122.946;2023-05-03T01:46:17;100405.92;;;18.27;61.49
55460;BME280;41326;45.302;-122.946;2023-05-03T01:48:47;100408.48;;;18.23;61.83
55460;BME280;41326;45.302;-122.946;2023-05-03T01:51:17;100410.36;;;18.24;61.78
55460;BME280;41326;45.302;-122.946;2023-05-03T01:53:48;100407.55;;;18.23;61.78
55460;BME280;41326;45.302;-122.946;2023-05-03T01:56:19;100407.41;;;18.27;61.50
55460;BME280;41326;45.302;-122.946;2023-05-03T01:58:49;100406.95;;;18.23;61.68
55460;BME280;41326;45.302;-122.946;2023-05-03T02:01:19;100409.39;;;18.26;61.61
55460;BME280;41326;45.302;-122.946;2023-05-03T02:03:50;100408.64;;;18.25;61.69
55460;BME280;41326;45.302;-122.946;2023-05-03T02:06:20;100412.79;;;18.28;61.43
55460;BME280;41326;45.302;-122.946;2023-05-03T02:08:50;100415.15;;;18.29;61.45
55460;BME280;41326;45.302;-122.946;2023-05-03T02:11:20;100422.52;;;18.32;61.31
55460;BME280;41326;45.302;-122.946;2023-05-03T02:13:52;100422.72;;;18.26;61.41
55460;BME280;41326;45.302;-122.946;2023-05-03T02:16:20;100427.14;;;18.28;61.06
55460;BME280;41326;45.302;-122.946;2023-05-03T02:18:51;100427.97;;;18.18;61.56
55460;BME280;41326;45.302;-122.946;2023-05-03T02:21:21;100429.03;;;18.19;61.62
55460;BME280;41326;45.302;-122.946;2023-05-03T02:23:51;100432.05;;;18.15;61.79
55460;BME280;41326;45.302;-122.946;2023-05-03T02:26:22;100437.24;;;18.17;61.63
55460;BME280;41326;45.302;-122.946;2023-05-03T02:28:52;100438.53;;;18.15;61.73
55460;BME280;41326;45.302;-122.946;2023-05-03T02:31:22;100442.61;;;18.16;61.88
55460;BME280;41326;45.302;-122.946;2023-05-03T02:33:53;100449.07;;;18.14;62.00
55460;BME280;41326;45.302;-122.946;2023-05-03T02:36:23;100453.40;;;18.15;61.97
55460;BME280;41326;45.302;-122.946;2023-05-03T02:38:53;100458.24;;;18.11;62.22
55460;BME280;41326;45.302;-122.946;2023-05-03T02:41:24;100462.54;;;18.12;62.20
55460;BME280;41326;45.302;-122.946;2023-05-03T02:43:54;100470.16;;;18.07;62.52
55460;BME280;41326;45.302;-122.946;2023-05-03T02:46:24;100475.88;;;18.05;62.86
55460;BME280;41326;45.302;-122.946;2023-05-03T02:48:54;100473.76;;;18.05;62.83
55460;BME280;41326;45.302;-122.946;2023-05-03T02:51:25;100476.30;;;17.98;63.33
55460;BME280;41326;45.302;-122.946;2023-05-03T02:53:55;100475.54;;;17.94;63.36
55460;BME280;41326;45.302;-122.946;2023-05-03T02:56:27;100475.06;;;17.94;63.27
55460;BME280;41326;45.302;-122.946;2023-05-03T02:58:57;100475.11;;;17.94;63.29
55460;BME280;41326;45.302;-122.946;2023-05-03T03:01:27;100479.16;;;17.94;63.28
55460;BME280;41326;45.302;-122.946;2023-05-03T03:03:57;100491.15;;;17.89;63.50
55460;BME280;41326;45.302;-122.946;2023-05-03T03:06:27;100500.34;;;17.87;63.50
55460;BME280;41326;45.302;-122.946;2023-05-03T03:08:57;100505.60;;;17.84;63.54
55460;BME280;41326;45.302;-122.946;2023-05-03T03:12:36;100500.80;;;17.81;63.70
55460;BME280;41326;45.302;-122.946;2023-05-03T03:15:07;100500.28;;;17.80;63.65
55460;BME280;41326;45.302;-122.946;2023-05-03T03:17:36;100508.52;;;17.79;63.57
55460;BME280;41326;45.302;-122.946;2023-05-03T03:20:07;100519.64;;;17.76;63.63
55460;BME280;41326;45.302;-122.946;2023-05-03T03:22:37;100526.34;;;17.76;63.60
55460;BME280;41326;45.302;-122.946;2023-05-03T03:25:08;100525.22;;;17.73;63.83
55460;BME280;41326;45.302;-122.946;2023-05-03T03:27:38;100525.50;;;17.78;63.55
55460;BME280;41326;45.302;-122.946;2023-05-03T03:30:08;100522.35;;;17.73;63.74
55460;BME280;41326;45.302;-122.946;2023-05-03T03:32:38;100526.66;;;17.74;63.74
55460;BME280;41326;45.302;-122.946;2023-05-03T03:35:09;100535.72;;;17.72;63.82
55460;BME280;41326;45.302;-122.946;2023-05-03T03:37:39;100540.74;;;17.75;63.74
55460;BME280;41326;45.302;-122.946;2023-05-03T03:40:10;100542.05;;;17.73;63.88
55460;BME280;41326;45.302;-122.946;2023-05-03T03:43:15;100542.48;;;17.73;63.79
55460;BME280;41326;45.302;-122.946;2023-05-03T03:45:45;100545.54;;;17.67;63.92
55460;BME280;41326;45.302;-122.946;2023-05-03T03:48:21;100551.28;;;17.67;63.87
55460;BME280;41326;45.302;-122.946;2023-05-03T03:50:51;100552.28;;;17.64;63.89
55460;BME280;41326;45.302;-122.946;2023-05-03T03:53:21;100552.34;;;17.61;63.97
55460;BME280;41326;45.302;-122.946;2023-05-03T03:55:51;100555.12;;;17.63;63.80
55460;BME280;41326;45.302;-122.946;2023-05-03T03:58:22;100555.21;;;17.59;64.03
55460;BME280;41326;45.302;-122.946;2023-05-03T04:00:53;100557.85;;;17.63;63.75
55460;BME280;41326;45.302;-122.946;2023-05-03T04:03:22;100560.99;;;17.58;64.15
55460;BME280;41326;45.302;-122.946;2023-05-03T04:05:53;100565.79;;;17.60;63.94
55460;BME280;41326;45.302;-122.946;2023-05-03T04:08:23;100568.59;;;17.57;63.97
55460;BME280;41326;45.302;-122.946;2023-05-03T04:10:54;100572.98;;;17.57;63.90
55460;BME280;41326;45.302;-122.946;2023-05-03T04:13:24;100578.02;;;17.57;63.78
55460;BME280;41326;45.302;-122.946;2023-05-03T04:15:54;100580.68;;;17.55;63.71
55460;BME280;41326;45.302;-122.946;2023-05-03T04:18:25;100584.84;;;17.55;63.60
55460;BME280;41326;45.302;-122.946;2023-05-03T04:20:55;100588.85;;;17.53;63.65
55460;BME280;41326;45.302;-122.946;2023-05-03T04:23:25;100591.20;;;17.51;63.65
55460;BME280;41326;45.302;-122.946;2023-05-03T04:25:55;100591.11;;;17.50;63.66
55460;BME280;41326;45.302;-122.946;2023-05-03T04:28:26;100591.10;;;17.46;63.73
55460;BME280;41326;45.302;-122.946;2023-05-03T04:30:56;100596.01;;;17.47;63.64
55460;BME280;41326;45.302;-122.946;2023-05-03T04:33:26;100599.91;;;17.39;63.85
55460;BME280;41326;45.302;-122.946;2023-05-03T04:35:57;100602.44;;;17.35;63.83
55460;BME280;41326;45.302;-122.946;2023-05-03T04:38:27;100600.35;;;17.31;63.90
55460;BME280;41326;45.302;-122.946;2023-05-03T04:40:58;100598.28;;;17.26;64.01
55460;BME280;41326;45.302;-122.946;2023-05-03T04:43:28;100597.34;;;17.25;63.87
55460;BME280;41326;45.302;-122.946;2023-05-03T04:45:58;100598.75;;;17.17;64.04
55460;BME280;41326;45.302;-122.946;2023-05-03T04:48:28;100599.31;;;17.14;64.07
55460;BME280;41326;45.302;-122.946;2023-05-03T04:50:58;100597.46;;;17.11;64.15
55460;BME280;41326;45.302;-122.946;2023-05-03T04:53:28;100600.46;;;17.05;64.31
55460;BME280;41326;45.302;-122.946;2023-05-03T04:55:59;100605.40;;;17.04;64.34
55460;BME280;41326;45.302;-122.946;2023-05-03T04:58:30;100601.53;;;17.05;64.14
55460;BME280;41326;45.302;-122.946;2023-05-03T05:01:00;100593.80;;;17.01;64.27
55460;BME280;41326;45.302;-122.946;2023-05-03T05:03:30;100589.21;;;16.92;64.55
55460;BME280;41326;45.302;-122.946;2023-05-03T05:06:00;100589.67;;;16.92;64.52
55460;BME280;41326;45.302;-122.946;2023-05-03T05:08:31;100586.54;;;16.90;64.49
55460;BME280;41326;45.302;-122.946;2023-05-03T05:11:01;100586.30;;;16.87;64.66
55460;BME280;41326;45.302;-122.946;2023-05-03T05:13:32;100588.94;;;16.85;64.77
55460;BME280;41326;45.302;-122.946;2023-05-03T05:16:02;100584.20;;;16.78;64.99
55460;BME280;41326;45.302;-122.946;2023-05-03T05:18:32;100568.82;;;16.77;65.00
55460;BME280;41326;45.302;-122.946;2023-05-03T05:21:02;100557.92;;;16.76;65.01
55460;BME280;41326;45.302;-122.946;2023-05-03T05:23:33;100543.39;;;16.75;64.93
55460;BME280;41326;45.302;-122.946;2023-05-03T05:26:03;100526.77;;;16.81;64.68
55460;BME280;41326;45.302;-122.946;2023-05-03T05:28:33;100508.53;;;16.86;64.56
55460;BME280;41326;45.302;-122.946;2023-05-03T05:31:04;100492.39;;;16.95;64.27
55460;BME280;41326;45.302;-122.946;2023-05-03T05:33:34;100485.50;;;16.97;64.23
55460;BME280;41326;45.302;-122.946;2023-05-03T05:36:05;100479.40;;;17.06;63.93
55460;BME280;41326;45.302;-122.946;2023-05-03T05:38:35;100471.73;;;17.05;63.99
55460;BME280;41326;45.302;-122.946;2023-05-03T05:41:05;100483.65;;;17.08;63.92
55460;BME280;41326;45.302;-122.946;2023-05-03T05:43:36;100512.09;;;17.11;63.87
55460;BME280;41326;45.302;-122.946;2023-05-03T05:46:07;100533.49;;;17.14;63.82
55460;BME280;41326;45.302;-122.946;2023-05-03T05:48:38;100547.34;;;17.15;63.75
55460;BME280;41326;45.302;-122.946;2023-05-03T05:51:08;100547.86;;;17.17;63.66
55460;BME280;41326;45.302;-122.946;2023-05-03T05:53:38;100551.64;;;17.13;63.80
55460;BME280;41326;45.302;-122.946;2023-05-03T05:56:08;100557.61;;;17.15;63.69
55460;BME280;41326;45.302;-122.946;2023-05-03T05:58:39;100569.70;;;17.16;63.69
55460;BME280;41326;45.302;-122.946;2023-05-03T06:01:08;100579.25;;;17.18;63.62
55460;BME280;41326;45.302;-122.946;2023-05-03T06:03:39;100590.83;;;17.16;63.71
55460;BME280;41326;45.302;-122.946;2023-05-03T06:06:09;100600.62;;;17.19;63.62
55460;BME280;41326;45.302;-122.946;2023-05-03T06:08:39;100605.00;;;17.14;63.81
55460;BME280;41326;45.302;-122.946;2023-05-03T06:11:09;100601.03;;;17.17;63.68
55460;BME280;41326;45.302;-122.946;2023-05-03T06:13:40;100597.78;;;17.21;63.55
55460;BME280;41326;45.302;-122.946;2023-05-03T06:16:10;100602.56;;;17.19;63.57
55460;BME280;41326;45.302;-122.946;2023-05-03T06:18:40;100605.58;;;17.20;63.56
55460;BME280;41326;45.302;-122.946;2023-05-03T06:21:11;100609.53;;;17.24;63.48
55460;BME280;41326;45.302;-122.946;2023-05-03T06:23:42;100611.29;;;17.17;63.72
55460;BME280;41326;45.302;-122.946;2023-05-03T06:26:12;100612.05;;;17.19;63.60
55460;BME280;41326;45.302;-122.946;2023-05-03T06:28:42;100610.85;;;17.17;63.68
55460;BME280;41326;45.302;-122.946;2023-05-03T06:31:12;100615.78;;;17.18;63.68
55460;BME280;41326;45.302;-122.946;2023-05-03T06:33:42;100627.47;;;17.18;63.70
55460;BME280;41326;45.302;-122.946;2023-05-03T06:36:13;100632.77;;;17.17;63.71
55460;BME280;41326;45.302;-122.946;2023-05-03T06:38:43;100636.05;;;17.20;63.63
55460;BME280;41326;45.302;-122.946;2023-05-03T06:41:13;100644.95;;;17.16;63.83
55460;BME280;41326;45.302;-122.946;2023-05-03T06:43:44;100653.77;;;17.18;63.75
55460;BME280;41326;45.302;-122.946;2023-05-03T06:46:14;100643.71;;;17.18;63.68
55460;BME280;41326;45.302;-122.946;2023-05-03T06:48:45;100638.61;;;17.20;63.62
55460;BME280;41326;45.302;-122.946;2023-05-03T06:51:15;100645.80;;;17.20;63.60
55460;BME280;41326;45.302;-122.946;2023-05-03T06:53:45;100664.86;;;17.18;63.68
55460;BME280;41326;45.302;-122.946;2023-05-03T06:56:15;100672.26;;;17.20;63.56
55460;BME280;41326;45.302;-122.946;2023-05-03T06:58:46;100676.18;;;17.17;63.67
55460;BME280;41326;45.302;-122.946;2023-05-03T07:01:16;100683.26;;;17.20;63.61
55460;BME280;41326;45.302;-122.946;2023-05-03T07:03:46;100687.91;;;17.17;63.74
55460;BME280;41326;45.302;-122.946;2023-05-03T07:06:16;100688.76;;;17.18;63.68
55460;BME280;41326;45.302;-122.946;2023-05-03T07:08:47;100680.97;;;17.19;63.60
55460;BME280;41326;45.302;-122.946;2023-05-03T07:11:17;100682.32;;;17.19;63.56
55460;BME280;41326;45.302;-122.946;2023-05-03T07:13:48;100685.11;;;17.19;63.58
55460;BME280;41326;45.302;-122.946;2023-05-03T07:16:18;100688.82;;;17.22;63.41
55460;BME280;41326;45.302;-122.946;2023-05-03T07:18:48;100689.06;;;17.20;63.52
55460;BME280;41326;45.302;-122.946;2023-05-03T07:21:18;100693.73;;;17.20;63.53
55460;BME280;41326;45.302;-122.946;2023-05-03T07:23:49;100702.14;;;17.18;63.55
55460;BME280;41326;45.302;-122.946;2023-05-03T07:26:19;100707.85;;;17.20;63.46
55460;BME280;41326;45.302;-122.946;2023-05-03T07:28:49;100701.74;;;17.14;63.67
55460;BME280;41326;45.302;-122.946;2023-05-03T07:31:20;100703.63;;;17.14;63.63
55460;BME280;41326;45.302;-122.946;2023-05-03T07:33:50;100704.10;;;17.15;63.53
55460;BME280;41326;45.302;-122.946;2023-05-03T07:36:20;100701.81;;;17.11;63.76
55460;BME280;41326;45.302;-122.946;2023-05-03T07:38:51;100702.00;;;17.14;63.65
55460;BME280;41326;45.302;-122.946;2023-05-03T07:41:21;100710.00;;;17.16;63.57
55460;BME280;41326;45.302;-122.946;2023-05-03T07:43:52;100713.98;;;17.15;63.57
55460;BME280;41326;45.302;-122.946;2023-05-03T07:46:22;100713.95;;;17.15;63.49
55460;BME280;41326;45.302;-122.946;2023-05-03T07:48:52;100714.95;;;17.12;63.59
55460;BME280;41326;45.302;-122.946;2023-05-03T07:51:22;100716.30;;;17.14;63.43
55460;BME280;41326;45.302;-122.946;2023-05-03T07:53:52;100717.56;;;17.16;63.32
55460;BME280;41326;45.302;-122.946;2023-05-03T07:56:23;100716.58;;;17.13;63.38
55460;BME280;41326;45.302;-122.946;2023-05-03T07:58:54;100711.63;;;17.10;63.40
55460;BME280;41326;45.302;-122.946;2023-05-03T08:01:25;100704.94;;;17.09;63.42
55460;BME280;41326;45.302;-122.946;2023-05-03T08:03:53;100700.12;;;17.08;63.42
55460;BME280;41326;45.302;-122.946;2023-05-03T08:06:24;100693.84;;;17.09;63.37
55460;BME280;41326;45.302;-122.946;2023-05-03T08:08:54;100693.43;;;17.07;63.39
55460;BME280;41326;45.302;-122.946;2023-05-03T08:11:25;100696.55;;;17.05;63.41
55460;BME280;41326;45.302;-122.946;2023-05-03T08:13:55;100691.40;;;17.02;63.47
55460;BME280;41326;45.302;-122.946;2023-05-03T08:16:25;100685.79;;;17.07;63.21
55460;BME280;41326;45.302;-122.946;2023-05-03T08:18:55;100687.36;;;17.08;63.17
55460;BME280;41326;45.302;-122.946;2023-05-03T08:21:25;100686.99;;;17.08;63.15
55460;BME280;41326;45.302;-122.946;2023-05-03T08:23:56;100680.32;;;17.07;63.12
55460;BME280;41326;45.302;-122.946;2023-05-03T08:26:26;100679.36;;;17.03;63.25
55460;BME280;41326;45.302;-122.946;2023-05-03T08:28:56;100675.82;;;17.04;63.18
55460;BME280;41326;45.302;-122.946;2023-05-03T08:31:26;100672.42;;;17.04;63.16
55460;BME280;41326;45.302;-122.946;2023-05-03T08:33:56;100673.09;;;17.00;63.28
55460;BME280;41326;45.302;-122.946;2023-05-03T08:36:27;100676.33;;;17.06;62.97
55460;BME280;41326;45.302;-122.946;2023-05-03T08:38:57;100674.97;;;17.00;63.17
55460;BME280;41326;45.302;-122.946;2023-05-03T08:42:37;100681.38;;;17.03;63.05
55460;BME280;41326;45.302;-122.946;2023-05-03T08:45:07;100685.34;;;17.06;62.89
55460;BME280;41326;45.302;-122.946;2023-05-03T08:47:36;100686.73;;;16.99;63.07
55460;BME280;41326;45.302;-122.946;2023-05-03T08:50:08;100692.04;;;16.97;63.09
55460;BME280;41326;45.302;-122.946;2023-05-03T08:52:39;100701.16;;;16.95;63.16
55460;BME280;41326;45.302;-122.946;2023-05-03T08:55:07;100702.74;;;16.97;63.05
55460;BME280;41326;45.302;-122.946;2023-05-03T08:57:38;100703.88;;;16.99;62.92
55460;BME280;41326;45.302;-122.946;2023-05-03T09:00:09;100702.92;;;17.01;62.79
55460;BME280;41326;45.302;-122.946;2023-05-03T09:02:48;100699.73;;;17.00;62.81
55460;BME280;41326;45.302;-122.946;2023-05-03T09:10:23;100696.32;;;16.90;63.03
55460;BME280;41326;45.302;-122.946;2023-05-03T09:12:49;100690.01;;;16.91;62.96
55460;BME280;41326;45.302;-122.946;2023-05-03T09:15:24;100680.53;;;16.90;62.96
55460;BME280;41326;45.302;-122.946;2023-05-03T09:20:23;100667.97;;;16.90;62.85
55460;BME280;41326;45.302;-122.946;2023-05-03T09:22:54;100665.30;;;16.89;62.84
55460;BME280;41326;45.302;-122.946;2023-05-03T09:25:20;100659.41;;;16.85;62.97
55460;BME280;41326;45.302;-122.946;2023-05-03T09:27:59;100656.52;;;16.87;62.85
55460;BME280;41326;45.302;-122.946;2023-05-03T09:30:24;100650.92;;;16.85;62.88
55460;BME280;41326;45.302;-122.946;2023-05-03T09:32:53;100650.16;;;16.84;62.90
55460;BME280;41326;45.302;-122.946;2023-05-03T09:35:23;100647.16;;;16.84;62.84
55460;BME280;41326;45.302;-122.946;2023-05-03T09:37:52;100639.48;;;16.89;62.64
55460;BME280;41326;45.302;-122.946;2023-05-03T09:40:23;100636.93;;;16.91;62.54
55460;BME280;41326;45.302;-122.946;2023-05-03T09:45:28;100634.86;;;16.95;62.38
55460;BME280;41326;45.302;-122.946;2023-05-03T09:47:54;100637.90;;;16.94;62.38
55460;BME280;41326;45.302;-122.946;2023-05-03T09:50:24;100635.89;;;17.01;62.09
55460;BME280;41326;45.302;-122.946;2023-05-03T09:52:55;100634.89;;;17.01;62.06
55460;BME280;41326;45.302;-122.946;2023-05-03T09:55:25;100632.91;;;17.00;62.04
55460;BME280;41326;45.302;-122.946;2023-05-03T09:57:56;100632.16;;;17.06;61.80
55460;BME280;41326;45.302;-122.946;2023-05-03T10:00:26;100623.80;;;17.02;61.91
55460;BME280;41326;45.302;-122.946;2023-05-03T10:02:59;100618.55;;;17.01;61.96
55460;BME280;41326;45.302;-122.946;2023-05-03T10:05:27;100611.82;;;16.98;61.99
55460;BME280;41326;45.302;-122.946;2023-05-03T10:07:57;100609.01;;;16.90;62.28
55460;BME280;41326;45.302;-122.946;2023-05-03T10:10:27;100609.87;;;16.88;62.35
55460;BME280;41326;45.302;-122.946;2023-05-03T10:12:58;100618.04;;;16.84;62.47
55460;BME280;41326;45.302;-122.946;2023-05-03T10:15:28;100618.82;;;16.83;62.46
55460;BME280;41326;45.302;-122.946;2023-05-03T10:17:58;100618.42;;;16.79;62.54
55460;BME280;41326;45.302;-122.946;2023-05-03T10:20:32;100622.11;;;16.85;62.31
55460;BME280;41326;45.302;-122.946;2023-05-03T10:23:06;100623.02;;;16.82;62.38
55460;BME280;41326;45.302;-122.946;2023-05-03T10:25:29;100621.70;;;16.79;62.46
55460;BME280;41326;45.302;-122.946;2023-05-03T10:28:04;100617.47;;;16.72;62.66
55460;BME280;41326;45.302;-122.946;2023-05-03T10:30:34;100613.18;;;16.73;62.61
55460;BME280;41326;45.302;-122.946;2023-05-03T10:35:33;100598.79;;;16.69;62.60
55460;BME280;41326;45.302;-122.946;2023-05-03T10:38:01;100592.92;;;16.69;62.53
55460;BME280;41326;45.302;-122.946;2023-05-03T10:40:40;100595.22;;;16.70;62.49
55460;BME280;41326;45.302;-122.946;2023-05-03T10:43:01;100598.65;;;16.66;62.58
55460;BME280;41326;45.302;-122.946;2023-05-03T10:45:32;100604.03;;;16.71;62.37
55460;BME280;41326;45.302;-122.946;2023-05-03T10:50:32;100590.80;;;16.59;62.70
55460;BME280;41326;45.302;-122.946;2023-05-03T10:53:02;100588.12;;;16.59;62.65
55460;BME280;41326;45.302;-122.946;2023-05-03T10:55:33;100584.03;;;16.62;62.45
55460;BME280;41326;45.302;-122.946;2023-05-03T10:58:04;100574.83;;;16.61;62.42
55460;BME280;41326;45.302;-122.946;2023-05-03T11:00:38;100566.84;;;16.61;62.41
55460;BME280;41326;45.302;-122.946;2023-05-03T11:03:12;100561.35;;;16.62;62.34
55460;BME280;41326;45.302;-122.946;2023-05-03T11:05:35;100562.38;;;16.56;62.50
55460;BME280;41326;45.302;-122.946;2023-05-03T11:08:11;100563.71;;;16.55;62.49
55460;BME280;41326;45.302;-122.946;2023-05-03T11:10:35;100558.10;;;16.58;62.33
55460;BME280;41326;45.302;-122.946;2023-05-03T11:13:05;100555.87;;;16.53;62.46
55460;BME280;41326;45.302;-122.946;2023-05-03T11:15:35;100560.22;;;16.56;62.31
55460;BME280;41326;45.302;-122.946;2023-05-03T11:18:06;100560.00;;;16.60;62.10
55460;BME280;41326;45.302;-122.946;2023-05-03T11:20:36;100559.52;;;16.61;62.01
55460;BME280;41326;45.302;-122.946;2023-05-03T11:23:07;100558.09;;;16.56;62.15
55460;BME280;41326;45.302;-122.946;2023-05-03T11:25:37;100553.74;;;16.58;62.05
55460;BME280;41326;45.302;-122.946;2023-05-03T11:28:08;100553.47;;;16.53;62.20
55460;BME280;41326;45.302;-122.946;2023-05-03T11:30:39;100552.62;;;16.50;62.27
55460;BME280;41326;45.302;-122.946;2023-05-03T11:33:08;100551.26;;;16.52;62.16
55460;BME280;41326;45.302;-122.946;2023-05-03T11:35:38;100545.21;;;16.50;62.17
55460;BME280;41326;45.302;-122.946;2023-05-03T11:38:08;100543.03;;;16.49;62.16
55460;BME280;41326;45.302;-122.946;2023-05-03T11:40:39;100536.47;;;16.48;62.18
55460;BME280;41326;45.302;-122.946;2023-05-03T11:43:12;100539.21;;;16.44;62.30
55460;BME280;41326;45.302;-122.946;2023-05-03T11:45:45;100540.58;;;16.45;62.24
55460;BME280;41326;45.302;-122.946;2023-05-03T11:48:10;100540.00;;;16.39;62.40
55460;BME280;41326;45.302;-122.946;2023-05-03T11:50:44;100536.63;;;16.41;62.27
55460;BME280;41326;45.302;-122.946;2023-05-03T11:53:10;100534.52;;;16.41;62.22
55460;BME280;41326;45.302;-122.946;2023-05-03T11:55:44;100533.68;;;16.44;62.05
55460;BME280;41326;45.302;-122.946;2023-05-03T11:58:13;100538.96;;;16.41;62.08
55460;BME280;41326;45.302;-122.946;2023-05-03T12:00:42;100543.79;;;16.37;62.14
55460;BME280;41326;45.302;-122.946;2023-05-03T12:03:15;100539.30;;;16.37;62.08
55460;BME280;41326;45.302;-122.946;2023-05-03T12:05:42;100539.23;;;16.33;62.19
55460;BME280;41326;45.302;-122.946;2023-05-03T12:08:14;100538.12;;;16.36;62.05
55460;BME280;41326;45.302;-122.946;2023-05-03T12:10:43;100540.04;;;16.33;62.08
55460;BME280;41326;45.302;-122.946;2023-05-03T12:13:14;100545.75;;;16.34;62.02
55460;BME280;41326;45.302;-122.946;2023-05-03T12:15:54;100547.40;;;16.31;62.07
55460;BME280;41326;45.302;-122.946;2023-05-03T12:18:16;100547.76;;;16.33;61.92
55460;BME280;41326;45.302;-122.946;2023-05-03T12:20:53;100546.33;;;16.31;61.95
55460;BME280;41326;45.302;-122.946;2023-05-03T12:23:16;100541.46;;;16.26;62.08
55460;BME280;41326;45.302;-122.946;2023-05-03T12:25:46;100535.26;;;16.26;62.05
55460;BME280;41326;45.302;-122.946;2023-05-03T12:28:15;100531.78;;;16.25;62.05
55460;BME280;41326;45.302;-122.946;2023-05-03T12:30:46;100534.58;;;16.27;61.92
55460;BME280;41326;45.302;-122.946;2023-05-03T12:33:17;100541.31;;;16.27;61.91
55460;BME280;41326;45.302;-122.946;2023-05-03T12:35:47;100544.45;;;16.31;61.69
55460;BME280;41326;45.302;-122.946;2023-05-03T12:38:17;100538.98;;;16.27;61.76
55460;BME280;41326;45.302;-122.946;2023-05-03T12:40:47;100532.33;;;16.30;61.60
55460;BME280;41326;45.302;-122.946;2023-05-03T12:43:18;100533.26;;;16.24;61.79
55460;BME280;41326;45.302;-122.946;2023-05-03T12:45:48;100537.88;;;16.23;61.79
55460;BME280;41326;45.302;-122.946;2023-05-03T12:48:18;100537.58;;;16.22;61.81
55460;BME280;41326;45.302;-122.946;2023-05-03T12:50:48;100535.98;;;16.21;61.82
55460;BME280;41326;45.302;-122.946;2023-05-03T12:53:18;100534.52;;;16.21;61.80